Time;durP1;ratioP1;P1;durP2;ratioP2;P2;SDS_P1;SDS_P2;PMS_P1;PMS_P2;Temp;Humidity;BMP_temperature;BMP_pressure;BME280_temperature;BME280_humidity;BME280_pressure;Samples;Min_cycle;Max_cycle;Signal;HPM_P1;HPM_P2
2021/10/15 00:02:00;;;;;;;9.55;5.60;;;;;;;;;;4977490;28;20050;-84
2021/10/15 00:04:25;;;;;;;8.95;5.70;;;;;;;;;;4977881;28;20052;-85
2021/10/15 00:06:51;;;;;;;7.68;5.72;;;;;;;;;;4960712;28;20046;-84
2021/10/15 00:09:16;;;;;;;9.25;6.13;;;;;;;;;;4961039;28;20073;-85
2021/10/15 00:11:45;;;;;;;8.50;5.32;;;;;;;;;;4973697;28;20056;-86
2021/10/15 00:14:11;;;;;;;9.13;5.85;;;;;;;;;;4987044;28;20133;-86
2021/10/15 00:16:36;;;;;;;9.32;5.53;;;;;;;;;;4974293;28;20088;-84
2021/10/15 00:19:02;;;;;;;8.57;5.82;;;;;;;;;;4972512;28;20034;-84
2021/10/15 00:21:27;;;;;;;8.82;5.57;;;;;;;;;;4960414;28;20030;-86
2021/10/15 00:23:53;;;;;;;8.32;5.68;;;;;;;;;;4971309;28;20033;-86
2021/10/15 00:26:18;;;;;;;8.02;5.65;;;;;;;;;;4978003;28;20092;-84
2021/10/15 00:28:44;;;;;;;8.80;5.22;;;;;;;;;;4972258;28;20037;-86
2021/10/15 00:31:09;;;;;;;8.88;5.72;;;;;;;;;;4983174;28;20034;-86
2021/10/15 00:33:35;;;;;;;8.35;5.55;;;;;;;;;;4972023;28;20037;-85
2021/10/15 00:36:00;;;;;;;10.20;5.55;;;;;;;;;;4973564;28;20030;-84
2021/10/15 00:38:26;;;;;;;8.30;5.38;;;;;;;;;;4976146;28;20034;-84
2021/10/15 00:40:51;;;;;;;8.48;5.40;;;;;;;;;;4974185;28;20096;-85
2021/10/15 00:43:16;;;;;;;9.30;6.00;;;;;;;;;;4970322;28;20165;-84
2021/10/15 00:45:43;;;;;;;9.73;5.63;;;;;;;;;;4973842;28;20456;-84
2021/10/15 00:48:09;;;;;;;9.73;5.28;;;;;;;;;;5003746;28;20037;-85
2021/10/15 00:50:35;;;;;;;9.02;5.93;;;;;;;;;;4983984;28;20026;-86
2021/10/15 00:53:01;;;;;;;12.68;6.13;;;;;;;;;;4983544;28;20038;-86
2021/10/15 00:55:27;;;;;;;8.70;5.53;;;;;;;;;;4972461;28;20030;-85
2021/10/15 00:57:52;;;;;;;10.40;5.97;;;;;;;;;;4974694;28;20553;-86
2021/10/15 01:00:17;;;;;;;9.45;5.57;;;;;;;;;;4976786;28;20037;-86
2021/10/15 01:02:43;;;;;;;9.05;5.30;;;;;;;;;;4992084;28;20032;-84
2021/10/15 01:05:10;;;;;;;9.40;5.72;;;;;;;;;;4966430;28;20038;-84
2021/10/15 01:07:37;;;;;;;7.50;5.65;;;;;;;;;;4966958;28;20126;-84
2021/10/15 01:10:04;;;;;;;8.55;5.25;;;;;;;;;;4978859;28;20029;-86
2021/10/15 01:12:31;;;;;;;9.75;5.60;;;;;;;;;;4974328;28;20089;-84
2021/10/15 01:14:56;;;;;;;7.85;5.35;;;;;;;;;;4979798;28;20401;-85
2021/10/15 01:17:22;;;;;;;8.52;5.78;;;;;;;;;;4958025;28;20031;-84
2021/10/15 01:19:54;;;;;;;8.73;5.75;;;;;;;;;;4974887;28;20048;-84
2021/10/15 01:22:19;;;;;;;9.93;6.10;;;;;;;;;;4968352;28;20026;-85
2021/10/15 01:24:45;;;;;;;10.13;5.78;;;;;;;;;;4972570;28;20390;-85
2021/10/15 01:27:11;;;;;;;7.47;5.75;;;;;;;;;;4973083;28;20044;-84
2021/10/15 01:29:38;;;;;;;9.80;6.15;;;;;;;;;;4972547;28;20078;-84
2021/10/15 01:32:06;;;;;;;9.48;5.90;;;;;;;;;;4990651;28;20045;-84
2021/10/15 01:34:31;;;;;;;9.18;5.68;;;;;;;;;;4997685;28;20030;-84
2021/10/15 01:36:57;;;;;;;9.90;6.40;;;;;;;;;;4969219;28;20053;-86
2021/10/15 01:39:22;;;;;;;8.82;5.65;;;;;;;;;;4999252;28;20033;-86
2021/10/15 01:41:48;;;;;;;7.95;5.88;;;;;;;;;;4965973;28;20030;-86
2021/10/15 01:44:14;;;;;;;11.07;6.03;;;;;;;;;;4987772;28;20031;-86
2021/10/15 01:46:39;;;;;;;10.95;6.05;;;;;;;;;;4970692;28;20049;-84
2021/10/15 01:49:05;;;;;;;11.00;6.00;;;;;;;;;;4971985;28;20034;-85
2021/10/15 01:51:30;;;;;;;8.48;5.72;;;;;;;;;;4974289;28;20034;-84
2021/10/15 01:53:56;;;;;;;9.50;6.20;;;;;;;;;;4974858;28;20111;-84
2021/10/15 01:56:21;;;;;;;9.18;6.15;;;;;;;;;;4972509;28;20034;-85
2021/10/15 01:58:46;;;;;;;9.88;5.63;;;;;;;;;;4972031;28;20035;-85
2021/10/15 02:01:12;;;;;;;11.07;5.80;;;;;;;;;;4969185;28;20113;-85
2021/10/15 02:03:37;;;;;;;9.05;5.88;;;;;;;;;;4971473;28;20034;-84
2021/10/15 02:06:03;;;;;;;9.18;6.20;;;;;;;;;;4964292;28;20060;-85
2021/10/15 02:08:28;;;;;;;11.10;6.63;;;;;;;;;;4972739;28;20146;-85
2021/10/15 02:10:54;;;;;;;9.35;5.72;;;;;;;;;;4982907;28;20088;-86
2021/10/15 02:13:19;;;;;;;8.93;6.10;;;;;;;;;;4971614;28;20029;-86
2021/10/15 02:15:45;;;;;;;10.48;6.35;;;;;;;;;;4971386;28;20492;-86
2021/10/15 02:18:10;;;;;;;9.65;6.38;;;;;;;;;;4989734;28;20401;-84
2021/10/15 02:20:35;;;;;;;11.98;6.93;;;;;;;;;;4970955;28;20033;-85
2021/10/15 02:23:01;;;;;;;10.57;6.30;;;;;;;;;;4969829;28;20030;-86
2021/10/15 02:25:28;;;;;;;11.07;6.93;;;;;;;;;;4952533;28;20044;-86
2021/10/15 02:27:53;;;;;;;11.50;6.07;;;;;;;;;;4982909;28;20033;-85
2021/10/15 02:30:20;;;;;;;13.52;6.50;;;;;;;;;;4967482;28;20045;-84
2021/10/15 02:32:46;;;;;;;9.30;5.93;;;;;;;;;;4968712;28;20069;-85
2021/10/15 02:35:13;;;;;;;8.60;6.20;;;;;;;;;;4966864;28;20030;-84
2021/10/15 02:37:39;;;;;;;10.15;5.85;;;;;;;;;;4984245;28;20547;-84
2021/10/15 02:40:06;;;;;;;10.68;5.97;;;;;;;;;;4998932;28;20037;-84
2021/10/15 02:42:31;;;;;;;10.73;6.47;;;;;;;;;;4983082;28;20128;-84
2021/10/15 02:44:57;;;;;;;14.32;6.28;;;;;;;;;;4967040;28;20125;-84
2021/10/15 02:47:23;;;;;;;10.25;6.75;;;;;;;;;;4971995;28;20038;-86
2021/10/15 02:49:49;;;;;;;11.10;6.97;;;;;;;;;;4968954;28;20100;-84
2021/10/15 02:52:16;;;;;;;8.20;5.80;;;;;;;;;;4984430;28;20022;-86
2021/10/15 02:54:41;;;;;;;14.45;6.72;;;;;;;;;;4995121;28;20467;-86
2021/10/15 02:57:06;;;;;;;9.75;6.90;;;;;;;;;;4982945;28;20152;-83
2021/10/15 02:59:32;;;;;;;12.25;7.00;;;;;;;;;;4960247;28;20030;-84
2021/10/15 03:01:57;;;;;;;12.40;7.25;;;;;;;;;;4973171;28;20060;-85
2021/10/15 03:04:23;;;;;;;8.50;6.43;;;;;;;;;;4959441;28;20065;-84
2021/10/15 03:06:49;;;;;;;11.55;7.63;;;;;;;;;;4969618;28;20096;-85
2021/10/15 03:09:14;;;;;;;10.20;6.68;;;;;;;;;;4965092;28;20065;-85
2021/10/15 03:11:40;;;;;;;10.82;6.20;;;;;;;;;;4969402;28;20034;-84
2021/10/15 03:14:05;;;;;;;10.95;6.85;;;;;;;;;;4990303;28;20034;-84
2021/10/15 03:16:31;;;;;;;10.15;6.88;;;;;;;;;;4987291;28;20091;-84
2021/10/15 03:18:56;;;;;;;14.15;7.50;;;;;;;;;;4967010;28;20119;-84
2021/10/15 03:21:21;;;;;;;9.88;6.75;;;;;;;;;;4969034;28;20044;-86
2021/10/15 03:23:47;;;;;;;12.38;7.30;;;;;;;;;;4957000;28;20033;-84
2021/10/15 03:26:12;;;;;;;14.70;7.40;;;;;;;;;;4985425;28;20053;-84
2021/10/15 03:28:38;;;;;;;10.52;6.93;;;;;;;;;;4968917;28;20034;-84
2021/10/15 03:31:03;;;;;;;13.18;7.07;;;;;;;;;;4974307;28;20137;-86
2021/10/15 03:33:29;;;;;;;9.82;6.60;;;;;;;;;;4971965;28;20069;-86
2021/10/15 03:35:54;;;;;;;11.55;7.32;;;;;;;;;;4973368;28;20034;-84
2021/10/15 03:38:21;;;;;;;12.25;7.28;;;;;;;;;;4967405;28;20056;-86
2021/10/15 03:40:46;;;;;;;10.30;6.90;;;;;;;;;;4984979;28;20029;-84
2021/10/15 03:43:12;;;;;;;11.25;7.13;;;;;;;;;;4959388;28;20030;-84
2021/10/15 03:45:37;;;;;;;11.70;7.18;;;;;;;;;;4984977;28;20124;-86
2021/10/15 03:48:03;;;;;;;12.93;6.65;;;;;;;;;;4978308;28;20100;-86
2021/10/15 03:50:29;;;;;;;11.43;7.75;;;;;;;;;;4972152;28;20042;-84
2021/10/15 03:52:54;;;;;;;11.52;7.30;;;;;;;;;;4986162;28;20038;-84
2021/10/15 03:55:20;;;;;;;10.73;7.20;;;;;;;;;;4968289;28;20037;-85
2021/10/15 03:57:45;;;;;;;12.75;7.22;;;;;;;;;;4963155;28;20099;-84
2021/10/15 04:00:12;;;;;;;11.07;7.03;;;;;;;;;;4986410;28;20169;-85
2021/10/15 04:02:43;;;;;;;11.85;7.80;;;;;;;;;;4984388;28;20040;-85
2021/10/15 04:05:11;;;;;;;11.97;7.83;;;;;;;;;;4982196;28;20057;-85
2021/10/15 04:07:37;;;;;;;12.68;7.18;;;;;;;;;;4980158;28;20336;-84
2021/10/15 04:10:04;;;;;;;10.82;7.47;;;;;;;;;;4967126;28;20087;-84
2021/10/15 04:12:30;;;;;;;10.68;7.00;;;;;;;;;;4981594;28;20201;-84
2021/10/15 04:14:55;;;;;;;10.98;7.78;;;;;;;;;;4997565;28;20074;-85
2021/10/15 04:17:21;;;;;;;13.10;8.55;;;;;;;;;;4956654;28;20104;-86
2021/10/15 04:19:46;;;;;;;13.32;8.13;;;;;;;;;;4987115;28;20056;-86
2021/10/15 04:22:12;;;;;;;15.40;8.70;;;;;;;;;;4966786;28;20123;-84
2021/10/15 04:24:38;;;;;;;13.52;8.13;;;;;;;;;;4987137;28;20080;-84
2021/10/15 04:27:04;;;;;;;14.15;8.40;;;;;;;;;;4992733;28;20049;-85
2021/10/15 04:29:29;;;;;;;11.65;8.05;;;;;;;;;;4969395;28;20433;-85
2021/10/15 04:31:55;;;;;;;13.55;8.65;;;;;;;;;;4961670;28;20033;-85
2021/10/15 04:34:20;;;;;;;11.75;7.95;;;;;;;;;;4992848;28;20119;-86
2021/10/15 04:36:46;;;;;;;11.73;7.88;;;;;;;;;;4960420;28;20128;-85
2021/10/15 04:39:11;;;;;;;10.73;7.50;;;;;;;;;;4981795;28;20026;-84
2021/10/15 04:41:37;;;;;;;10.68;7.70;;;;;;;;;;5000047;28;20025;-86
2021/10/15 04:44:02;;;;;;;13.60;8.35;;;;;;;;;;4974857;28;20026;-85
2021/10/15 04:46:28;;;;;;;13.07;7.75;;;;;;;;;;4991951;28;20046;-84
2021/10/15 04:48:53;;;;;;;13.10;8.05;;;;;;;;;;4978297;28;20061;-85
2021/10/15 04:51:19;;;;;;;14.30;7.95;;;;;;;;;;4962012;28;20042;-84
2021/10/15 04:53:44;;;;;;;11.48;8.35;;;;;;;;;;4982984;28;20040;-84
2021/10/15 04:56:10;;;;;;;12.55;7.78;;;;;;;;;;4970806;28;20040;-86
2021/10/15 04:58:35;;;;;;;12.55;7.82;;;;;;;;;;4971033;28;20041;-84
2021/10/15 05:01:01;;;;;;;11.73;7.55;;;;;;;;;;4989737;28;20056;-86
2021/10/15 05:03:26;;;;;;;10.27;7.50;;;;;;;;;;4990234;28;20030;-85
2021/10/15 05:05:51;;;;;;;11.23;7.85;;;;;;;;;;4967052;28;20126;-86
2021/10/15 05:08:17;;;;;;;13.15;8.30;;;;;;;;;;4982028;28;20119;-84
2021/10/15 05:10:44;;;;;;;14.95;7.95;;;;;;;;;;4981847;28;20575;-84
2021/10/15 05:13:12;;;;;;;12.40;8.18;;;;;;;;;;4990933;28;20045;-84
2021/10/15 05:15:38;;;;;;;13.60;7.90;;;;;;;;;;4974456;28;20513;-86
2021/10/15 05:18:04;;;;;;;13.80;8.65;;;;;;;;;;4971641;28;20378;-85
2021/10/15 05:20:30;;;;;;;13.73;8.07;;;;;;;;;;4970203;28;20034;-86
2021/10/15 05:22:55;;;;;;;11.95;8.48;;;;;;;;;;4970190;28;20040;-85
2021/10/15 05:25:21;;;;;;;12.65;8.40;;;;;;;;;;4992732;28;20035;-86
2021/10/15 05:27:46;;;;;;;12.75;8.38;;;;;;;;;;4985616;28;20041;-86
2021/10/15 05:30:12;;;;;;;11.45;8.77;;;;;;;;;;4986991;28;20080;-85
2021/10/15 05:32:38;;;;;;;12.73;8.27;;;;;;;;;;4968395;28;20117;-86
2021/10/15 05:35:06;;;;;;;11.05;8.25;;;;;;;;;;4985961;28;20033;-85
2021/10/15 05:37:32;;;;;;;11.38;8.25;;;;;;;;;;4985665;28;20026;-85
2021/10/15 05:40:00;;;;;;;10.30;7.85;;;;;;;;;;4971919;28;20685;-83
2021/10/15 05:42:25;;;;;;;13.73;9.05;;;;;;;;;;4977428;28;20034;-83
2021/10/15 05:44:51;;;;;;;16.80;9.18;;;;;;;;;;4978850;28;20040;-84
2021/10/15 05:47:16;;;;;;;13.13;8.82;;;;;;;;;;4992989;28;20026;-85
2021/10/15 05:49:42;;;;;;;11.88;8.40;;;;;;;;;;4992753;28;20042;-84
2021/10/15 05:52:12;;;;;;;14.63;8.85;;;;;;;;;;4988808;28;20033;-85
2021/10/15 05:58:49;;;;;;;13.35;8.63;;;;;;;;;;5006423;28;20080;-84
2021/10/15 05:59:55;;;;;;;15.65;9.73;;;;;;;;;;4981904;28;20041;-85
2021/10/15 06:02:21;;;;;;;22.92;10.10;;;;;;;;;;4992273;28;20084;-86
2021/10/15 06:15:35;;;;;;;14.32;9.13;;;;;;;;;;4995624;28;20060;-84
2021/10/15 06:18:18;;;;;;;13.88;9.35;;;;;;;;;;5008097;28;20022;-83
2021/10/15 06:20:44;;;;;;;;;;;;;;;;;;4991174;28;20389;-85
2021/10/15 06:23:10;;;;;;;12.57;9.02;;;;;;;;;;4988460;28;19921;-84
2021/10/15 06:25:36;;;;;;;14.57;8.98;;;;;;;;;;4976074;28;20029;-83
2021/10/15 06:28:03;;;;;;;13.30;9.32;;;;;;;;;;4993260;28;20084;-86
2021/10/15 06:30:31;;;;;;;14.27;9.27;;;;;;;;;;4966096;28;20038;-86
2021/10/15 06:32:57;;;;;;;16.10;9.60;;;;;;;;;;4971472;28;20518;-84
2021/10/15 06:35:24;;;;;;;17.15;10.00;;;;;;;;;;4989911;28;20057;-84
2021/10/15 06:37:50;;;;;;;17.00;10.20;;;;;;;;;;4969291;28;20096;-85
2021/10/15 06:40:16;;;;;;;16.55;9.60;;;;;;;;;;4965620;28;20473;-86
2021/10/15 06:42:42;;;;;;;14.13;9.70;;;;;;;;;;4992670;28;20113;-86
2021/10/15 06:45:08;;;;;;;13.95;9.50;;;;;;;;;;4975375;28;20117;-85
2021/10/15 06:47:33;;;;;;;14.88;9.55;;;;;;;;;;4990308;28;20516;-85
2021/10/15 06:49:59;;;;;;;13.98;9.52;;;;;;;;;;4991551;28;20121;-85
2021/10/15 06:52:24;;;;;;;18.40;10.18;;;;;;;;;;4981725;28;20084;-84
2021/10/15 06:54:51;;;;;;;15.85;9.63;;;;;;;;;;4975172;28;20033;-87
2021/10/15 06:57:16;;;;;;;14.25;9.57;;;;;;;;;;4987804;28;20034;-88
2021/10/15 06:59:42;;;;;;;15.30;10.32;;;;;;;;;;4991220;28;20040;-84
2021/10/15 07:02:08;;;;;;;14.73;10.13;;;;;;;;;;4987613;28;20224;-84
2021/10/15 07:04:33;;;;;;;15.85;10.60;;;;;;;;;;4985891;28;20080;-85
2021/10/15 07:07:00;;;;;;;14.35;9.90;;;;;;;;;;4987831;28;20050;-87
2021/10/15 07:09:26;;;;;;;19.13;10.63;;;;;;;;;;4969238;28;20040;-86
2021/10/15 07:11:51;;;;;;;16.35;10.00;;;;;;;;;;4967750;28;20034;-85
2021/10/15 07:14:17;;;;;;;14.52;10.35;;;;;;;;;;4969956;28;20034;-87
2021/10/15 07:16:43;;;;;;;16.15;9.95;;;;;;;;;;4983356;28;20120;-86
2021/10/15 07:19:09;;;;;;;14.65;10.75;;;;;;;;;;4988631;28;20037;-86
2021/10/15 07:21:35;;;;;;;16.50;10.45;;;;;;;;;;4971797;28;20033;-86
2021/10/15 07:24:01;;;;;;;16.13;10.27;;;;;;;;;;4991004;28;20083;-87
2021/10/15 07:26:26;;;;;;;11.70;8.73;;;;;;;;;;5004790;28;20096;-87
2021/10/15 07:28:52;;;;;;;13.75;9.00;;;;;;;;;;4988074;28;20059;-87
2021/10/15 07:31:18;;;;;;;9.15;6.22;;;;;;;;;;4989562;28;20027;-87
2021/10/15 07:33:43;;;;;;;5.78;3.20;;;;;;;;;;4971107;28;20467;-88
2021/10/15 07:36:09;;;;;;;4.38;2.45;;;;;;;;;;4988850;28;20160;-87
2021/10/15 07:38:36;;;;;;;3.53;2.00;;;;;;;;;;4972117;28;20068;-89
2021/10/15 07:41:03;;;;;;;2.60;1.20;;;;;;;;;;4959290;28;20033;-87
2021/10/15 07:43:29;;;;;;;4.95;1.13;;;;;;;;;;4973138;28;20038;-87
2021/10/15 07:45:54;;;;;;;1.20;0.70;;;;;;;;;;4978988;28;20041;-89
2021/10/15 07:48:20;;;;;;;1.52;0.80;;;;;;;;;;4963603;28;20027;-88
2021/10/15 07:50:45;;;;;;;3.38;0.70;;;;;;;;;;4967848;28;20124;-89
2021/10/15 07:53:11;;;;;;;1.35;0.60;;;;;;;;;;4985094;28;20033;-87
2021/10/15 07:55:36;;;;;;;1.73;0.50;;;;;;;;;;4973250;28;20044;-88
2021/10/15 07:58:01;;;;;;;0.80;0.32;;;;;;;;;;4968702;28;20026;-86
2021/10/15 08:00:27;;;;;;;1.33;0.40;;;;;;;;;;4974419;28;20061;-88
2021/10/15 08:02:53;;;;;;;1.85;0.50;;;;;;;;;;4973822;28;20482;-88
2021/10/15 08:05:19;;;;;;;2.33;0.55;;;;;;;;;;4964310;28;20508;-88
2021/10/15 08:07:44;;;;;;;2.47;0.50;;;;;;;;;;4971369;28;20046;-87
2021/10/15 08:10:10;;;;;;;2.20;0.50;;;;;;;;;;4969252;28;20022;-87
2021/10/15 08:12:37;;;;;;;0.70;0.32;;;;;;;;;;4974272;28;20400;-88
2021/10/15 08:15:04;;;;;;;2.67;0.50;;;;;;;;;;4966623;28;20057;-87
2021/10/15 08:17:45;;;;;;;;;;;;;;;;;;;;;
2021/10/15 08:20:16;;;;;;;1.13;0.30;;;;;;;;;;5004072;28;20038;-87
2021/10/15 08:22:42;;;;;;;2.38;0.45;;;;;;;;;;4976276;28;20038;-86
2021/10/15 08:25:08;;;;;;;1.73;0.40;;;;;;;;;;4974163;28;20052;-87
2021/10/15 08:27:33;;;;;;;2.58;0.68;;;;;;;;;;4990407;28;20026;-87
2021/10/15 08:30:00;;;;;;;2.08;0.50;;;;;;;;;;4975724;28;20041;-88
2021/10/15 08:32:26;;;;;;;1.95;0.50;;;;;;;;;;4974229;28;20037;-86
2021/10/15 08:34:52;;;;;;;3.63;0.77;;;;;;;;;;4974831;28;20029;-88
2021/10/15 08:37:18;;;;;;;1.90;0.50;;;;;;;;;;4992705;28;20054;-88
2021/10/15 08:39:43;;;;;;;2.00;0.50;;;;;;;;;;4965117;28;20064;-87
2021/10/15 08:42:09;;;;;;;2.13;0.50;;;;;;;;;;4974751;28;20022;-88
2021/10/15 08:44:41;;;;;;;1.88;0.60;;;;;;;;;;5010042;28;20026;-86
2021/10/15 08:47:08;;;;;;;3.47;0.70;;;;;;;;;;4989731;28;20076;-87
2021/10/15 08:49:34;;;;;;;3.08;0.77;;;;;;;;;;4990424;28;20274;-88
2021/10/15 08:52:00;;;;;;;3.97;1.10;;;;;;;;;;4990700;28;20034;-88
2021/10/15 08:54:25;;;;;;;5.43;0.95;;;;;;;;;;4988780;28;20394;-88
2021/10/15 08:56:51;;;;;;;4.35;0.80;;;;;;;;;;4987777;28;20100;-87
2021/10/15 08:59:20;;;;;;;3.45;0.80;;;;;;;;;;4989561;28;20030;-86
2021/10/15 09:01:48;;;;;;;4.03;0.80;;;;;;;;;;4961208;28;20041;-88
2021/10/15 09:04:19;;;;;;;4.70;0.70;;;;;;;;;;4992283;28;20049;-87
2021/10/15 09:06:48;;;;;;;3.50;0.50;;;;;;;;;;4990138;28;20053;-87
2021/10/15 09:09:14;;;;;;;4.30;0.60;;;;;;;;;;4981107;28;20087;-87
2021/10/15 09:11:47;;;;;;;4.63;0.60;;;;;;;;;;5006617;28;20040;-88
2021/10/15 09:14:24;;;;;;;7.20;0.75;;;;;;;;;;4963007;28;20053;-88
2021/10/15 09:17:15;;;;;;;5.78;0.80;;;;;;;;;;4988821;28;20033;-86
2021/10/15 09:19:48;;;;;;;4.55;0.63;;;;;;;;;;4987754;28;20030;-86
2021/10/15 09:22:31;;;;;;;3.30;0.65;;;;;;;;;;4988918;28;20023;-88
2021/10/15 09:25:15;;;;;;;3.03;0.68;;;;;;;;;;4992777;28;20033;-86
2021/10/15 09:27:45;;;;;;;5.10;1.00;;;;;;;;;;4991758;28;20044;-88
2021/10/15 09:30:24;;;;;;;6.10;0.80;;;;;;;;;;4985447;28;20041;-86
2021/10/15 09:33:01;;;;;;;3.25;0.60;;;;;;;;;;4985044;28;20040;-86
2021/10/15 09:35:29;;;;;;;4.85;0.80;;;;;;;;;;4992237;28;20636;-86
2021/10/15 09:38:01;;;;;;;6.28;0.75;;;;;;;;;;5002354;28;20053;-86
2021/10/15 09:40:33;;;;;;;4.37;0.90;;;;;;;;;;5004416;28;20030;-87
2021/10/15 09:43:02;;;;;;;3.90;0.88;;;;;;;;;;4988577;28;20459;-86
2021/10/15 09:45:43;;;;;;;3.08;0.65;;;;;;;;;;4970306;28;20104;-87
2021/10/15 09:48:21;;;;;;;3.78;0.60;;;;;;;;;;5007312;28;20033;-86
2021/10/15 09:50:48;;;;;;;5.25;1.15;;;;;;;;;;4990114;28;20034;-86
2021/10/15 09:53:14;;;;;;;4.72;0.82;;;;;;;;;;4975512;28;20022;-88
2021/10/15 09:55:41;;;;;;;7.18;0.85;;;;;;;;;;4982604;28;20033;-88
2021/10/15 09:58:19;;;;;;;4.50;0.70;;;;;;;;;;4983077;28;20030;-87
2021/10/15 10:00:47;;;;;;;4.90;0.90;;;;;;;;;;4970537;28;20385;-88
2021/10/15 10:03:14;;;;;;;6.75;0.80;;;;;;;;;;4971354;28;20112;-86
2021/10/15 10:05:40;;;;;;;5.35;0.95;;;;;;;;;;5002335;28;20036;-87
2021/10/15 10:08:06;;;;;;;5.75;0.93;;;;;;;;;;4971901;28;20050;-88
2021/10/15 10:10:34;;;;;;;7.25;1.10;;;;;;;;;;4971653;28;20030;-87
2021/10/15 10:13:01;;;;;;;4.38;0.80;;;;;;;;;;4984756;28;20374;-87
2021/10/15 10:15:29;;;;;;;5.40;1.05;;;;;;;;;;4989341;28;20037;-87
2021/10/15 10:18:04;;;;;;;5.70;0.90;;;;;;;;;;4990197;28;20030;-88
2021/10/15 10:20:32;;;;;;;7.80;1.15;;;;;;;;;;4989253;28;20073;-88
2021/10/15 10:23:00;;;;;;;8.15;1.25;;;;;;;;;;4987464;28;20030;-88
2021/10/15 10:25:26;;;;;;;7.28;1.05;;;;;;;;;;4992532;28;20022;-88
2021/10/15 10:27:52;;;;;;;6.03;0.95;;;;;;;;;;4960218;28;20096;-87
2021/10/15 10:30:34;;;;;;;8.25;1.27;;;;;;;;;;4989639;28;20393;-87
2021/10/15 10:33:02;;;;;;;10.73;1.20;;;;;;;;;;4986593;28;20084;-88
2021/10/15 10:35:29;;;;;;;7.28;1.10;;;;;;;;;;4983114;28;20079;-87
2021/10/15 10:38:19;;;;;;;7.80;1.00;;;;;;;;;;4986018;28;20540;-88
2021/10/15 10:41:00;;;;;;;10.05;1.20;;;;;;;;;;4989056;28;20054;-87
2021/10/15 10:43:43;;;;;;;7.38;0.90;;;;;;;;;;5001292;28;20037;-88
2021/10/15 10:46:09;;;;;;;6.60;1.08;;;;;;;;;;4987567;28;20029;-87
2021/10/15 10:48:54;;;;;;;7.13;1.30;;;;;;;;;;5002164;28;20034;-86
2021/10/15 10:51:30;;;;;;;7.20;1.00;;;;;;;;;;4982390;28;20041;-86
2021/10/15 10:54:10;;;;;;;6.82;0.93;;;;;;;;;;4990501;28;20390;-86
2021/10/15 10:56:43;;;;;;;7.53;0.93;;;;;;;;;;4986598;28;20758;-86
2021/10/15 10:59:21;;;;;;;8.47;0.90;;;;;;;;;;4985009;28;20029;-87
2021/10/15 11:02:06;;;;;;;10.50;1.00;;;;;;;;;;4998844;28;20635;-86
2021/10/15 11:04:52;;;;;;;8.65;1.10;;;;;;;;;;4988450;28;20033;-86
2021/10/15 11:07:19;;;;;;;6.95;1.20;;;;;;;;;;5004050;28;20182;-87
2021/10/15 11:09:48;;;;;;;6.25;0.82;;;;;;;;;;4990427;28;20129;-86
2021/10/15 11:12:22;;;;;;;5.97;0.82;;;;;;;;;;5003854;28;20092;-87
2021/10/15 11:15:06;;;;;;;8.20;1.50;;;;;;;;;;5002343;28;20038;-87
2021/10/15 11:17:38;;;;;;;5.45;0.90;;;;;;;;;;4999250;28;20517;-86
2021/10/15 11:20:21;;;;;;;7.85;1.15;;;;;;;;;;4991297;28;20034;-87
2021/10/15 11:22:59;;;;;;;;;;;;;;;;;;4966348;28;20038;-86
2021/10/15 11:25:43;;;;;;;6.63;0.93;;;;;;;;;;4990191;28;19921;-86
2021/10/15 11:28:14;;;;;;;6.07;1.10;;;;;;;;;;4984150;28;20029;-86
2021/10/15 11:30:44;;;;;;;4.63;0.98;;;;;;;;;;4982843;28;20065;-87
2021/10/15 11:33:15;;;;;;;9.68;0.95;;;;;;;;;;4987498;28;20120;-85
2021/10/15 11:35:44;;;;;;;9.00;1.13;;;;;;;;;;4981514;28;20030;-86
2021/10/15 11:38:19;;;;;;;8.23;1.00;;;;;;;;;;4976779;28;20825;-87
2021/10/15 11:41:06;;;;;;;7.03;1.35;;;;;;;;;;4992380;28;20105;-87
2021/10/15 11:43:41;;;;;;;5.25;1.00;;;;;;;;;;4978794;28;20046;-86
2021/10/15 11:46:11;;;;;;;5.57;0.93;;;;;;;;;;4981332;28;20636;-87
2021/10/15 11:48:45;;;;;;;7.30;0.80;;;;;;;;;;4979268;28;20678;-85
2021/10/15 11:51:17;;;;;;;6.03;1.05;;;;;;;;;;4965364;28;20074;-85
2021/10/15 11:53:43;;;;;;;9.10;1.38;;;;;;;;;;4981704;28;20038;-86
2021/10/15 11:56:23;;;;;;;6.78;0.95;;;;;;;;;;4996218;28;20532;-87
2021/10/15 11:58:59;;;;;;;7.05;1.08;;;;;;;;;;4983084;28;20804;-87
2021/10/15 12:01:33;;;;;;;6.47;0.90;;;;;;;;;;4980977;28;20029;-88
2021/10/15 12:04:01;;;;;;;7.63;1.10;;;;;;;;;;4969065;28;20045;-87
2021/10/15 12:06:29;;;;;;;8.23;0.98;;;;;;;;;;4982025;28;20103;-86
2021/10/15 12:09:02;;;;;;;7.53;1.00;;;;;;;;;;4993725;28;20125;-87
2021/10/15 12:11:48;;;;;;;9.77;1.30;;;;;;;;;;4981594;28;20034;-87
2021/10/15 12:14:15;;;;;;;5.28;1.00;;;;;;;;;;4981159;28;22176;-86
2021/10/15 12:16:55;;;;;;;8.82;1.10;;;;;;;;;;4979109;28;20436;-86
2021/10/15 12:19:23;;;;;;;7.25;1.10;;;;;;;;;;4983717;28;20034;-87
2021/10/15 12:21:56;;;;;;;4.97;1.00;;;;;;;;;;4980029;28;20066;-87
2021/10/15 12:24:30;;;;;;;6.05;0.70;;;;;;;;;;4981212;28;20034;-86
2021/10/15 12:27:07;;;;;;;6.25;1.15;;;;;;;;;;4976971;28;20034;-87
2021/10/15 12:29:35;;;;;;;8.02;1.00;;;;;;;;;;4983070;28;20025;-85
2021/10/15 12:32:23;;;;;;;6.97;0.80;;;;;;;;;;4980547;28;20143;-86
2021/10/15 12:34:50;;;;;;;7.07;0.90;;;;;;;;;;4984763;28;20444;-87
2021/10/15 12:37:15;;;;;;;6.28;0.90;;;;;;;;;;4953516;28;20033;-85
2021/10/15 12:39:41;;;;;;;5.78;0.80;;;;;;;;;;4966194;28;20033;-85
2021/10/15 12:42:15;;;;;;;6.63;0.80;;;;;;;;;;4959939;28;20064;-87
2021/10/15 12:44:41;;;;;;;4.53;1.10;;;;;;;;;;4983416;28;20092;-85
2021/10/15 12:47:08;;;;;;;5.85;0.68;;;;;;;;;;4968552;28;20061;-87
2021/10/15 12:50:04;;;;;;;5.13;0.73;;;;;;;;;;4982855;28;20022;-86
2021/10/15 12:52:40;;;;;;;4.30;0.70;;;;;;;;;;4982447;28;21335;-85
2021/10/15 12:55:25;;;;;;;5.53;1.30;;;;;;;;;;4985120;28;20026;-86
2021/10/15 12:58:00;;;;;;;9.20;0.90;;;;;;;;;;4985217;28;20149;-86
2021/10/15 13:00:28;;;;;;;5.13;0.98;;;;;;;;;;4984331;28;20025;-88
2021/10/15 13:03:06;;;;;;;7.05;0.90;;;;;;;;;;4984471;28;20042;-85
2021/10/15 13:05:33;;;;;;;6.40;1.02;;;;;;;;;;4974727;28;20045;-86
2021/10/15 13:07:58;;;;;;;7.85;1.10;;;;;;;;;;4967746;28;20058;-85
2021/10/15 13:10:26;;;;;;;10.50;1.10;;;;;;;;;;4984783;28;20034;-87
2021/10/15 13:12:53;;;;;;;6.43;1.00;;;;;;;;;;4982189;28;20082;-87
2021/10/15 13:15:27;;;;;;;7.53;1.10;;;;;;;;;;4968734;28;20042;-85
2021/10/15 13:17:52;;;;;;;6.10;0.88;;;;;;;;;;4982740;28;20439;-85
2021/10/15 13:20:22;;;;;;;9.93;1.10;;;;;;;;;;4961695;28;20065;-87
2021/10/15 13:22:51;;;;;;;11.38;1.50;;;;;;;;;;4997069;28;20102;-87
2021/10/15 13:25:18;;;;;;;9.73;1.38;;;;;;;;;;4982031;28;20724;-87
2021/10/15 13:27:44;;;;;;;10.07;1.48;;;;;;;;;;4968788;28;20460;-87
2021/10/15 13:30:10;;;;;;;10.55;1.23;;;;;;;;;;4969112;28;20042;-87
2021/10/15 13:32:37;;;;;;;10.27;1.33;;;;;;;;;;4983977;28;20026;-86
2021/10/15 13:35:03;;;;;;;16.13;1.63;;;;;;;;;;4966904;28;20507;-86
2021/10/15 13:37:32;;;;;;;10.32;1.17;;;;;;;;;;4972230;28;20044;-87
2021/10/15 13:39:59;;;;;;;9.70;1.20;;;;;;;;;;4954994;28;20553;-87
2021/10/15 13:47:45;;;;;;;11.45;1.17;;;;;;;;;;4972209;28;20041;-86
2021/10/15 13:50:11;;;;;;;10.18;1.77;;;;;;;;;;4982223;28;20049;-86
2021/10/15 13:52:37;;;;;;;10.52;1.58;;;;;;;;;;4952853;28;20068;-85
2021/10/15 13:55:08;;;;;;;8.95;1.27;;;;;;;;;;4985652;28;20782;-85
2021/10/15 13:57:36;;;;;;;9.23;1.45;;;;;;;;;;4984140;28;20806;-86
2021/10/15 14:00:26;;;;;;;9.93;1.40;;;;;;;;;;4970500;28;20061;-84
2021/10/15 14:02:53;;;;;;;9.00;1.67;;;;;;;;;;5001293;28;20477;-87
2021/10/15 14:05:19;;;;;;;8.77;1.10;;;;;;;;;;4971736;28;20029;-85
2021/10/15 14:07:45;;;;;;;10.00;1.20;;;;;;;;;;4971580;28;20057;-86
2021/10/15 14:10:11;;;;;;;10.93;1.40;;;;;;;;;;4970501;28;20033;-87
2021/10/15 14:12:36;;;;;;;10.25;1.88;;;;;;;;;;4991512;28;20023;-85
2021/10/15 14:15:03;;;;;;;8.05;1.38;;;;;;;;;;4986192;28;20901;-87
2021/10/15 14:17:29;;;;;;;8.20;1.17;;;;;;;;;;4986285;28;20061;-87
2021/10/15 14:19:54;;;;;;;10.65;2.08;;;;;;;;;;4985532;28;20050;-87
2021/10/15 14:22:20;;;;;;;11.57;1.10;;;;;;;;;;4987569;28;20034;-87
2021/10/15 14:24:47;;;;;;;10.05;1.67;;;;;;;;;;4988924;28;20113;-87
2021/10/15 14:27:12;;;;;;;9.60;1.52;;;;;;;;;;4972800;28;20032;-87
2021/10/15 14:29:39;;;;;;;9.00;1.52;;;;;;;;;;4979269;28;20485;-85
2021/10/15 14:32:05;;;;;;;8.50;1.20;;;;;;;;;;4973611;28;20030;-85
2021/10/15 14:34:31;;;;;;;10.88;2.28;;;;;;;;;;5011184;28;20100;-87
2021/10/15 14:36:56;;;;;;;10.13;1.40;;;;;;;;;;4971467;28;20113;-85
2021/10/15 14:39:22;;;;;;;8.45;1.88;;;;;;;;;;4974569;28;20022;-85
2021/10/15 14:41:47;;;;;;;15.88;1.75;;;;;;;;;;4989452;28;20026;-87
2021/10/15 14:44:14;;;;;;;9.00;1.65;;;;;;;;;;4975893;28;20048;-87
2021/10/15 14:46:40;;;;;;;13.27;2.10;;;;;;;;;;4972710;28;20033;-86
2021/10/15 14:49:06;;;;;;;10.10;1.70;;;;;;;;;;4986077;28;20116;-85
2021/10/15 14:51:31;;;;;;;10.40;1.38;;;;;;;;;;4987478;28;20604;-87
2021/10/15 14:53:57;;;;;;;6.35;1.20;;;;;;;;;;4969271;28;20141;-87
2021/10/15 14:56:22;;;;;;;9.60;1.80;;;;;;;;;;4988288;28;20030;-85
2021/10/15 14:58:47;;;;;;;7.50;1.20;;;;;;;;;;4977577;28;20092;-85
2021/10/15 15:01:13;;;;;;;7.63;1.10;;;;;;;;;;4970156;28;20397;-87
2021/10/15 15:03:40;;;;;;;10.13;1.10;;;;;;;;;;4982988;28;20025;-85